createdAt,value
2018-01-24T00:00:07.310Z,34.90
2018-01-24T00:02:34.961Z,29.37
2018-01-24T00:05:03.315Z,30.87
2018-01-24T00:07:30.919Z,28.13
2018-01-24T00:09:58.488Z,29.10
2018-01-24T00:12:26.097Z,25.07
2018-01-24T00:14:53.666Z,23.47
2018-01-24T00:17:22.046Z,25.27
2018-01-24T00:19:50.428Z,24.63
2018-01-24T00:22:18.829Z,27.33
2018-01-24T00:24:46.437Z,25.30
2018-01-24T00:27:14.055Z,28.67
2018-01-24T00:29:41.652Z,24.73
2018-01-24T00:32:10.009Z,25.53
2018-01-24T00:34:37.602Z,23.37
2018-01-24T00:37:05.192Z,24.00
2018-01-24T00:39:33.646Z,22.60
2018-01-24T00:42:02.010Z,20.50
2018-01-24T00:44:29.780Z,19.53
2018-01-24T00:46:58.139Z,23.63
2018-01-24T00:49:25.730Z,17.27
2018-01-24T00:51:53.328Z,17.53
2018-01-24T00:54:20.926Z,13.57
2018-01-24T00:56:48.539Z,15.40
2018-01-24T00:59:16.880Z,14.93
2018-01-24T01:01:44.486Z,16.50
2018-01-24T01:04:12.066Z,18.50
2018-01-24T01:06:39.665Z,14.83
2018-01-24T01:09:07.262Z,16.60
2018-01-24T01:11:34.876Z,14.17
2018-01-24T01:14:02.456Z,15.67
2018-01-24T01:16:30.041Z,14.57
2018-01-24T01:18:57.648Z,12.87
2018-01-24T01:21:25.278Z,11.87
2018-01-24T01:23:52.872Z,13.23
2018-01-24T01:26:20.476Z,12.40
2018-01-24T01:28:48.077Z,14.20
2018-01-24T01:31:15.668Z,14.90
2018-01-24T01:33:43.256Z,9.10
2018-01-24T01:36:11.633Z,14.27
2018-01-24T01:38:40.209Z,10.60
2018-01-24T01:41:08.558Z,12.57
2018-01-24T01:43:36.146Z,14.17
2018-01-24T01:46:03.781Z,13.20
2018-01-24T01:48:32.179Z,13.40
2018-01-24T01:51:00.409Z,18.70
2018-01-24T01:53:28.016Z,9.10
2018-01-24T01:55:55.626Z,11.97
2018-01-24T01:58:23.388Z,15.20
2018-01-24T02:00:50.976Z,12.57
2018-01-24T02:03:18.645Z,13.13
2018-01-24T02:05:46.233Z,14.07
2018-01-24T02:08:14.579Z,14.27
2018-01-24T02:10:42.176Z,13.10
2018-01-24T02:13:10.678Z,12.97
2018-01-24T02:15:38.592Z,11.57
2018-01-24T02:18:06.225Z,13.43
2018-01-24T02:20:33.803Z,14.30
2018-01-24T02:23:01.398Z,14.17
2018-01-24T02:25:29.757Z,17.07
2018-01-24T02:27:57.372Z,19.03
2018-01-24T02:30:24.942Z,16.80
2018-01-24T02:32:52.557Z,12.10
2018-01-24T02:35:20.904Z,14.20
2018-01-24T02:37:48.485Z,12.57
2018-01-24T02:40:16.135Z,13.43
2018-01-24T02:42:43.733Z,16.57
2018-01-24T02:45:11.325Z,13.47
2018-01-24T02:47:38.917Z,17.93
2018-01-24T02:50:06.572Z,15.73
2018-01-24T02:52:34.152Z,15.07
2018-01-24T02:55:01.752Z,19.07
2018-01-24T02:57:29.329Z,15.17
2018-01-24T02:59:56.938Z,15.13
2018-01-24T03:02:25.558Z,19.70
2018-01-24T03:04:53.153Z,15.03
2018-01-24T03:07:20.753Z,16.37
2018-01-24T03:09:49.113Z,13.53
2018-01-24T03:12:17.524Z,14.07
2018-01-24T03:14:45.201Z,16.37
2018-01-24T03:17:12.801Z,15.97
2018-01-24T03:19:40.372Z,19.00
2018-01-24T03:22:07.965Z,15.63
2018-01-24T03:24:35.534Z,15.53
2018-01-24T03:27:03.120Z,16.13
2018-01-24T03:29:30.716Z,13.30
2018-01-24T03:31:59.076Z,13.67
2018-01-24T03:34:26.670Z,16.10
2018-01-24T03:36:55.046Z,19.60
2018-01-24T03:39:23.421Z,15.17
2018-01-24T03:41:51.829Z,11.03
2018-01-24T03:44:19.434Z,15.17
2018-01-24T03:46:47.025Z,16.00
2018-01-24T03:49:15.381Z,12.70
2018-01-24T03:51:42.956Z,18.13
2018-01-24T03:54:10.549Z,20.07
2018-01-24T03:56:38.172Z,15.10
2018-01-24T03:59:06.530Z,16.10
2018-01-24T04:01:34.110Z,17.77
2018-01-24T04:04:02.473Z,19.30
2018-01-24T04:06:30.045Z,15.80
2018-01-24T04:08:58.541Z,14.87
2018-01-24T04:11:26.979Z,12.23
2018-01-24T04:13:54.554Z,15.90
2018-01-24T04:16:22.145Z,14.43
2018-01-24T04:18:50.485Z,13.07
2018-01-24T04:21:18.081Z,10.30
2018-01-24T04:23:46.416Z,16.07
2018-01-24T04:26:14.025Z,15.57
2018-01-24T04:28:41.632Z,12.13
2018-01-24T04:31:09.219Z,16.33
2018-01-24T04:33:36.808Z,17.60
2018-01-24T04:36:04.384Z,12.77
2018-01-24T04:38:31.993Z,16.17
2018-01-24T04:40:59.584Z,17.50
2018-01-24T04:43:27.258Z,15.20
2018-01-24T04:45:54.845Z,12.93
2018-01-24T04:48:22.438Z,20.77
2018-01-24T04:50:50.019Z,18.67
2018-01-24T04:53:18.419Z,15.90
2018-01-24T04:55:46.013Z,19.53
2018-01-24T04:58:13.602Z,17.90
2018-01-24T05:00:41.182Z,15.30
2018-01-24T05:03:09.550Z,16.63
2018-01-24T05:05:37.953Z,17.70
2018-01-24T05:08:05.549Z,17.63
2018-01-24T05:10:33.129Z,19.77
2018-01-24T05:13:00.748Z,22.67
2018-01-24T05:15:28.338Z,23.03
2018-01-24T05:17:55.951Z,20.97
2018-01-24T05:20:30.141Z,22.00
2018-01-24T05:22:58.533Z,21.27
2018-01-24T05:25:26.116Z,19.90
2018-01-24T05:27:53.776Z,26.63
2018-01-24T05:30:21.368Z,27.80
2018-01-24T05:32:48.947Z,25.27
2018-01-24T05:35:16.569Z,30.13
2018-01-24T05:37:44.161Z,20.97
2018-01-24T05:40:11.776Z,29.70
2018-01-24T05:42:39.364Z,22.23
2018-01-24T05:45:06.965Z,26.23
2018-01-24T05:47:35.324Z,24.37
2018-01-24T05:50:02.884Z,23.53
2018-01-24T05:52:30.492Z,23.87
2018-01-24T05:54:58.111Z,26.50
2018-01-24T05:57:25.769Z,26.77
2018-01-24T05:59:53.349Z,24.77
2018-01-24T06:02:21.725Z,26.27
2018-01-24T06:04:50.099Z,27.60
2018-01-24T06:07:17.689Z,27.30
2018-01-24T06:09:45.276Z,24.47
2018-01-24T06:12:12.885Z,25.80
2018-01-24T06:14:41.235Z,24.70
2018-01-24T06:17:08.855Z,25.03
2018-01-24T06:19:36.477Z,29.13
2018-01-24T06:22:04.058Z,30.83
2018-01-24T06:24:31.732Z,24.17
2018-01-24T06:26:59.313Z,31.70
2018-01-24T06:29:26.925Z,26.60
2018-01-24T06:31:54.625Z,24.13
2018-01-24T06:34:22.349Z,24.93
2018-01-24T06:36:50.713Z,26.23
2018-01-24T06:39:18.393Z,25.03
2018-01-24T06:41:46.746Z,28.83
2018-01-24T06:44:14.409Z,25.90
2018-01-24T06:46:42.015Z,29.70
2018-01-24T06:49:09.625Z,26.27
2018-01-24T06:51:37.220Z,29.17
2018-01-24T06:54:05.577Z,36.10
2018-01-24T06:56:33.180Z,24.33
2018-01-24T06:59:00.924Z,26.67
2018-01-24T07:01:29.288Z,27.70
2018-01-24T07:03:57.631Z,26.30
2018-01-24T07:06:25.246Z,34.03
2018-01-24T07:08:52.838Z,34.07
2018-01-24T07:11:20.432Z,35.53
2018-01-24T07:14:00.165Z,29.13
2018-01-24T07:16:27.797Z,34.27
2018-01-24T07:18:55.368Z,37.13
2018-01-24T07:21:22.973Z,32.33
2018-01-24T07:23:51.316Z,39.07
2018-01-24T07:26:18.945Z,37.10
2018-01-24T07:28:46.519Z,32.03
2018-01-24T07:31:14.114Z,35.87
2018-01-24T07:33:41.744Z,35.90
2018-01-24T07:36:09.328Z,35.93
2018-01-24T07:38:36.932Z,38.80
2018-01-24T07:41:04.517Z,35.87
2018-01-24T07:43:32.124Z,34.57
2018-01-24T07:45:59.708Z,33.00
2018-01-24T07:48:28.077Z,33.17
2018-01-24T07:50:56.425Z,29.67
2018-01-24T07:53:24.089Z,34.57
2018-01-24T07:55:51.694Z,34.40
2018-01-24T07:58:19.288Z,33.87
2018-01-24T08:00:46.883Z,27.10
2018-01-24T08:03:14.511Z,32.53
2018-01-24T08:05:42.105Z,34.40
2018-01-24T08:08:09.677Z,30.67
2018-01-24T08:10:38.057Z,35.10
2018-01-24T08:13:06.465Z,42.97
2018-01-24T08:15:34.068Z,43.17
2018-01-24T08:18:01.701Z,36.97
2018-01-24T08:20:29.289Z,39.10
2018-01-24T08:22:56.883Z,34.10
2018-01-24T08:25:25.246Z,29.03
2018-01-24T08:27:53.598Z,27.27
2018-01-24T08:30:22.307Z,29.20
2018-01-24T08:32:49.909Z,27.23
2018-01-24T08:35:17.485Z,30.60
2018-01-24T08:37:45.205Z,27.87
2018-01-24T08:40:13.549Z,30.93
2018-01-24T08:42:41.220Z,25.93
2018-01-24T08:45:08.802Z,30.00
2018-01-24T08:47:37.164Z,26.93
2018-01-24T08:50:04.733Z,24.23
2018-01-24T08:52:33.101Z,26.03
2018-01-24T08:55:00.672Z,27.37
2018-01-24T08:57:29.034Z,28.57
2018-01-24T08:59:56.661Z,26.20
2018-01-24T09:02:24.245Z,25.47
2018-01-24T09:04:51.846Z,20.73
2018-01-24T09:07:20.284Z,26.17
2018-01-24T09:09:48.434Z,24.90
2018-01-24T09:12:16.036Z,26.87
2018-01-24T09:14:43.623Z,23.80
2018-01-24T09:17:11.249Z,21.83
2018-01-24T09:19:38.828Z,21.70
2018-01-24T09:22:07.197Z,22.97
2018-01-24T09:24:34.777Z,22.63
2018-01-24T09:27:03.141Z,21.57
2018-01-24T09:29:31.807Z,21.20
2018-01-24T09:31:59.413Z,18.43
2018-01-24T09:34:27.017Z,18.80
2018-01-24T09:36:54.631Z,19.73
2018-01-24T09:39:22.536Z,16.80
2018-01-24T09:41:50.336Z,19.33
2018-01-24T09:44:18.852Z,18.90
2018-01-24T09:46:46.453Z,20.27
2018-01-24T09:49:14.033Z,16.90
2018-01-24T09:51:41.773Z,15.90
2018-01-24T09:54:09.356Z,17.57
2018-01-24T09:56:37.701Z,18.50
2018-01-24T09:59:05.303Z,18.77
2018-01-24T10:01:33.961Z,15.77
2018-01-24T10:04:02.381Z,18.50
2018-01-24T10:06:30.737Z,18.37
2018-01-24T10:08:58.341Z,20.37
2018-01-24T10:11:25.940Z,17.00
2018-01-24T10:13:53.541Z,17.93
2018-01-24T10:16:21.908Z,23.27
2018-01-24T10:18:49.493Z,17.43
2018-01-24T10:21:17.109Z,14.37
2018-01-24T10:23:44.761Z,14.60
2018-01-24T10:26:12.382Z,17.73
2018-01-24T10:28:39.952Z,18.10
2018-01-24T10:31:07.553Z,16.73
2018-01-24T10:33:35.222Z,17.30
2018-01-24T10:36:02.837Z,17.97
2018-01-24T10:38:30.422Z,18.07
2018-01-24T10:40:58.064Z,13.77
2018-01-24T10:43:25.643Z,16.80
2018-01-24T10:45:54.805Z,14.30
2018-01-24T10:48:22.547Z,18.03
2018-01-24T10:50:50.148Z,16.80
2018-01-24T10:53:17.738Z,18.30
2018-01-24T10:55:45.353Z,18.10
2018-01-24T10:58:12.974Z,18.97
2018-01-24T11:00:41.321Z,16.20
2018-01-24T11:03:09.049Z,15.47
2018-01-24T11:05:36.649Z,13.03
2018-01-24T11:08:04.213Z,15.03
2018-01-24T11:10:31.826Z,12.43
2018-01-24T11:12:59.465Z,12.73
2018-01-24T11:15:27.804Z,12.73
2018-01-24T11:17:55.409Z,14.90
2018-01-24T11:20:23.024Z,11.90
2018-01-24T11:22:50.853Z,11.83
2018-01-24T11:25:18.427Z,15.00
2018-01-24T11:27:46.029Z,12.60
2018-01-24T11:30:13.606Z,11.53
2018-01-24T11:32:41.970Z,13.17
2018-01-24T11:35:09.549Z,13.30
2018-01-24T11:37:37.966Z,10.97
2018-01-24T11:40:05.552Z,11.57
2018-01-24T11:42:33.161Z,12.77
2018-01-24T11:45:00.828Z,10.13
2018-01-24T11:50:01.634Z,9.63
2018-01-24T11:52:29.365Z,9.93
2018-01-24T11:54:57.036Z,10.83
2018-01-24T11:57:24.609Z,8.33
2018-01-24T11:59:52.196Z,8.33
2018-01-24T12:02:20.546Z,8.40
2018-01-24T12:04:48.909Z,10.17
2018-01-24T12:07:16.481Z,9.23
2018-01-24T12:09:44.073Z,7.30
2018-01-24T12:12:12.417Z,7.90
2018-01-24T12:14:39.996Z,7.80
2018-01-24T12:17:07.928Z,8.93
2018-01-24T12:19:35.566Z,6.67
2018-01-24T12:22:03.163Z,8.00
2018-01-24T12:24:30.762Z,8.60
2018-01-24T12:26:59.117Z,9.00
2018-01-24T12:29:26.706Z,9.90
2018-01-24T12:31:55.069Z,11.63
2018-01-24T12:34:23.410Z,13.30
2018-01-24T12:36:50.998Z,10.73
2018-01-24T12:39:18.612Z,11.17
2018-01-24T12:41:46.201Z,9.13
2018-01-24T12:44:13.800Z,8.00
2018-01-24T12:46:42.153Z,12.30
2018-01-24T12:49:09.745Z,11.80
2018-01-24T12:51:38.092Z,13.37
2018-01-24T12:54:05.700Z,9.50
2018-01-24T12:56:33.341Z,13.27
2018-01-24T12:59:00.953Z,11.37
2018-01-24T13:01:28.647Z,11.27
2018-01-24T13:03:57.111Z,11.10
2018-01-24T13:06:24.726Z,11.30
2018-01-24T13:08:52.304Z,12.60
2018-01-24T13:11:21.437Z,8.73
2018-01-24T13:13:49.018Z,8.93
2018-01-24T13:16:17.380Z,9.77
2018-01-24T13:18:45.054Z,7.97
2018-01-24T13:21:13.667Z,8.30
2018-01-24T13:23:41.244Z,10.10
2018-01-24T13:26:08.834Z,11.27
2018-01-24T13:28:36.505Z,10.10
2018-01-24T13:31:04.080Z,8.83
2018-01-24T13:33:33.269Z,10.67
2018-01-24T13:36:01.609Z,9.67
2018-01-24T13:38:29.200Z,8.93
2018-01-24T13:40:56.792Z,6.57
2018-01-24T13:43:24.429Z,7.83
2018-01-24T13:45:52.781Z,7.00
2018-01-24T13:48:20.350Z,6.37
2018-01-24T13:50:47.947Z,8.30
2018-01-24T13:53:15.527Z,6.07
2018-01-24T13:55:43.127Z,10.53
2018-01-24T13:58:10.700Z,8.37
2018-01-24T14:00:39.122Z,7.30
2018-01-24T14:03:06.702Z,5.57
2018-01-24T14:05:34.297Z,7.73
2018-01-24T14:08:01.872Z,5.53
2018-01-24T14:10:30.800Z,6.10
2018-01-24T14:12:58.413Z,6.90
2018-01-24T14:15:26.044Z,7.27
2018-01-24T14:17:53.655Z,6.17
2018-01-24T14:20:22.002Z,6.33
2018-01-24T14:22:49.576Z,6.03
2018-01-24T14:25:17.940Z,6.73
2018-01-24T14:27:45.535Z,7.90
2018-01-24T14:30:13.143Z,5.90
2018-01-24T14:32:40.771Z,5.73
2018-01-24T14:35:08.364Z,5.53
2018-01-24T14:37:35.957Z,9.33
2018-01-24T14:40:04.306Z,6.93
2018-01-24T14:42:32.097Z,6.47
2018-01-24T14:45:00.537Z,9.83
2018-01-24T14:47:28.423Z,8.77
2018-01-24T14:49:56.021Z,6.77
2018-01-24T14:52:23.985Z,9.90
2018-01-24T14:54:52.350Z,8.73
2018-01-24T14:57:20.684Z,13.80
2018-01-24T14:59:48.269Z,18.33
2018-01-24T15:02:17.410Z,9.13
2018-01-24T15:04:45.748Z,16.43
2018-01-24T15:07:13.361Z,11.83
2018-01-24T15:09:42.308Z,17.73
2018-01-24T15:12:09.910Z,23.13
2018-01-24T15:14:37.492Z,37.27
2018-01-24T15:17:05.068Z,26.27
2018-01-24T15:19:32.669Z,22.27
2018-01-24T15:22:00.354Z,13.63
2018-01-24T15:24:27.953Z,13.40
2018-01-24T15:26:55.573Z,10.97
2018-01-24T15:29:23.152Z,10.13
2018-01-24T15:31:50.733Z,13.80
2018-01-24T15:34:18.418Z,14.47
2018-01-24T15:36:46.814Z,17.37
2018-01-24T15:39:15.177Z,16.33
2018-01-24T15:41:43.513Z,18.00
2018-01-24T15:44:11.892Z,19.87
2018-01-24T15:46:39.525Z,15.23
2018-01-24T15:49:07.125Z,16.97
2018-01-24T15:51:34.701Z,11.80
2018-01-24T15:54:02.344Z,13.10
2018-01-24T15:56:30.692Z,11.00
2018-01-24T15:58:58.302Z,13.57
2018-01-24T16:01:25.894Z,15.90
2018-01-24T16:03:53.508Z,11.83
2018-01-24T16:06:21.100Z,13.40
2018-01-24T16:08:49.492Z,13.10
2018-01-24T16:11:17.856Z,11.47
2018-01-24T16:13:46.200Z,10.87
2018-01-24T16:16:13.802Z,11.33
2018-01-24T16:18:42.937Z,14.97
2018-01-24T16:21:10.546Z,12.30
2018-01-24T16:23:38.133Z,16.80
2018-01-24T16:26:05.716Z,17.07
2018-01-24T16:28:33.324Z,17.47
2018-01-24T16:31:00.924Z,22.10
2018-01-24T16:33:28.529Z,26.87
2018-01-24T16:35:56.109Z,25.03
2018-01-24T16:38:24.477Z,28.87
2018-01-24T16:40:52.158Z,32.57
2018-01-24T16:43:20.525Z,25.33
2018-01-24T16:45:48.918Z,27.13
2018-01-24T16:48:16.514Z,28.20
2018-01-24T16:50:44.158Z,30.23
2018-01-24T16:53:11.745Z,42.20
2018-01-24T16:55:39.349Z,50.93
2018-01-24T16:58:07.830Z,44.70
2018-01-24T17:00:36.253Z,49.17
2018-01-24T17:03:04.640Z,35.93
2018-01-24T17:05:32.240Z,26.57
2018-01-24T17:07:59.949Z,26.77
2018-01-24T17:10:27.542Z,29.63
2018-01-24T17:12:55.164Z,23.17
2018-01-24T17:15:22.754Z,25.23
2018-01-24T17:17:50.365Z,29.03
2018-01-24T17:20:17.953Z,44.40
2018-01-24T17:22:45.585Z,43.37
2018-01-24T17:25:13.936Z,42.60
2018-01-24T17:27:41.510Z,22.80
2018-01-24T17:30:09.923Z,18.43
2018-01-24T17:32:37.513Z,14.60
2018-01-24T17:35:05.146Z,9.50
2018-01-24T17:37:32.746Z,10.27
2018-01-24T17:40:00.356Z,15.57
2018-01-24T17:42:27.940Z,15.57
2018-01-24T17:44:55.550Z,21.17
2018-01-24T17:47:23.910Z,61.60
2018-01-24T17:49:51.521Z,122.90
2018-01-24T17:52:19.176Z,83.07
2018-01-24T17:54:46.767Z,20.23
2018-01-24T17:57:14.408Z,16.60
2018-01-24T17:59:43.224Z,13.53
2018-01-24T18:02:10.809Z,17.33
2018-01-24T18:04:38.520Z,22.77
2018-01-24T18:07:06.100Z,20.70
2018-01-24T18:09:33.796Z,22.27
2018-01-24T18:12:01.401Z,19.60
2018-01-24T18:14:29.001Z,27.40
2018-01-24T18:16:56.609Z,30.83
2018-01-24T18:19:24.215Z,37.93
2018-01-24T18:21:51.821Z,31.00
2018-01-24T18:24:20.224Z,30.57
2018-01-24T18:26:48.192Z,28.20
2018-01-24T18:29:15.834Z,25.13
2018-01-24T18:31:44.233Z,31.07
2018-01-24T18:34:11.890Z,30.43
2018-01-24T18:36:39.516Z,26.37
2018-01-24T18:39:07.874Z,23.17
2018-01-24T18:41:35.474Z,22.40
2018-01-24T18:44:04.074Z,16.73
2018-01-24T18:46:32.413Z,10.57
2018-01-24T18:49:00.015Z,12.03
2018-01-24T18:51:27.730Z,12.70
2018-01-24T18:53:55.323Z,10.27
2018-01-24T18:56:22.937Z,11.93
2018-01-24T18:58:50.518Z,17.20
2018-01-24T19:01:18.904Z,19.87
2018-01-24T19:03:47.261Z,20.37
2018-01-24T19:06:14.940Z,25.93
2018-01-24T19:08:43.446Z,25.20
2018-01-24T19:11:11.034Z,31.57
2018-01-24T19:13:38.644Z,33.30
2018-01-24T19:16:07.010Z,40.67
2018-01-24T19:18:34.617Z,41.80
2018-01-24T19:21:02.250Z,41.97
2018-01-24T19:23:30.630Z,45.87
2018-01-24T19:25:58.977Z,41.63
2018-01-24T19:28:26.568Z,31.97
2018-01-24T19:30:54.971Z,19.13
2018-01-24T19:33:22.572Z,18.10
2018-01-24T19:35:50.199Z,18.40
2018-01-24T19:38:17.784Z,18.50
2018-01-24T19:40:45.394Z,19.20
2018-01-24T19:43:13.757Z,23.03
2018-01-24T19:45:42.222Z,23.87
2018-01-24T19:48:09.830Z,32.40
2018-01-24T19:50:37.413Z,31.90
2018-01-24T19:53:05.015Z,28.63
2018-01-24T19:55:33.382Z,23.80
2018-01-24T19:58:00.977Z,25.13
2018-01-24T20:00:28.571Z,29.13
2018-01-24T20:02:56.213Z,19.67
2018-01-24T20:05:23.813Z,77.10
2018-01-24T20:07:51.418Z,21.37
2018-01-24T20:10:19.809Z,19.93
2018-01-24T20:12:47.402Z,22.53
2018-01-24T20:15:15.004Z,25.70
2018-01-24T20:17:43.373Z,26.27
2018-01-24T20:20:10.981Z,32.67
2018-01-24T20:22:39.553Z,22.00
2018-01-24T20:25:07.148Z,23.03
2018-01-24T20:27:34.724Z,22.27
2018-01-24T20:30:02.335Z,20.80
2018-01-24T20:32:29.914Z,22.63
2018-01-24T20:34:57.520Z,19.13
2018-01-24T20:37:25.901Z,20.97
2018-01-24T20:39:54.273Z,26.87
2018-01-24T20:42:21.865Z,29.33
2018-01-24T20:44:49.487Z,30.10
2018-01-24T20:47:17.084Z,26.40
2018-01-24T20:49:44.688Z,25.00
2018-01-24T20:52:12.332Z,21.27
2018-01-24T20:54:39.920Z,26.73
2018-01-24T20:57:07.519Z,26.33
2018-01-24T20:59:35.128Z,24.23
2018-01-24T21:02:02.724Z,23.33
2018-01-24T21:04:31.145Z,23.53
2018-01-24T21:06:58.756Z,24.47
2018-01-24T21:09:26.347Z,24.93
2018-01-24T21:11:53.959Z,31.13
2018-01-24T21:14:21.565Z,28.10
2018-01-24T21:16:49.170Z,31.87
2018-01-24T21:19:16.785Z,26.03
2018-01-24T21:21:44.391Z,27.50
2018-01-24T21:24:12.016Z,30.63
2018-01-24T21:26:39.654Z,28.57
2018-01-24T21:29:29.695Z,31.90
2018-01-24T21:32:09.899Z,35.87
2018-01-24T21:34:50.074Z,37.73
2018-01-24T21:37:17.708Z,37.37
2018-01-24T21:39:46.071Z,33.57
2018-01-24T21:42:13.760Z,28.30
2018-01-24T21:44:42.131Z,32.70
2018-01-24T21:47:10.498Z,29.77
2018-01-24T21:49:38.097Z,35.97
2018-01-24T21:52:06.450Z,33.23
2018-01-24T21:54:34.793Z,33.30
2018-01-24T21:57:02.385Z,24.93
2018-01-24T21:59:30.745Z,32.03
2018-01-24T22:01:58.352Z,27.10
2018-01-24T22:04:25.989Z,27.63
2018-01-24T22:06:54.437Z,23.10
2018-01-24T22:09:22.058Z,43.60
2018-01-24T22:11:49.673Z,46.50
2018-01-24T22:14:18.041Z,27.97
2018-01-24T22:16:45.668Z,24.63
2018-01-24T22:19:13.285Z,23.70
2018-01-24T22:21:41.652Z,23.77
2018-01-24T22:24:09.276Z,24.80
2018-01-24T22:26:36.894Z,24.77
2018-01-24T22:29:04.510Z,28.43
2018-01-24T22:31:32.172Z,26.07
2018-01-24T22:33:59.781Z,28.03
2018-01-24T22:36:27.375Z,39.87
2018-01-24T22:38:54.959Z,24.57
2018-01-24T22:41:22.541Z,24.70
2018-01-24T22:43:50.916Z,25.23
2018-01-24T22:46:19.298Z,23.13
2018-01-24T22:48:47.644Z,24.63
2018-01-24T22:51:20.913Z,22.40
2018-01-24T22:53:48.519Z,25.10
2018-01-24T22:56:16.130Z,24.17
2018-01-24T22:58:43.707Z,28.17
2018-01-24T23:01:11.316Z,22.87
2018-01-24T23:03:39.669Z,24.97
2018-01-24T23:06:07.282Z,23.40
2018-01-24T23:08:34.858Z,27.77
2018-01-24T23:11:02.464Z,23.60
2018-01-24T23:13:30.817Z,26.47
2018-01-24T23:15:58.422Z,25.27
2018-01-24T23:18:26.126Z,22.33
2018-01-24T23:20:53.728Z,24.57
2018-01-24T23:23:22.102Z,23.77
2018-01-24T23:25:50.444Z,23.37
2018-01-24T23:28:18.122Z,20.43
2018-01-24T23:30:45.705Z,21.50
2018-01-24T23:33:13.314Z,22.83
2018-01-24T23:35:40.966Z,20.60
2018-01-24T23:38:08.569Z,21.50
2018-01-24T23:40:36.157Z,17.17
2018-01-24T23:43:04.565Z,18.67
2018-01-24T23:45:32.173Z,21.33
2018-01-24T23:47:59.792Z,21.20
2018-01-24T23:50:27.400Z,19.20
2018-01-24T23:52:54.972Z,19.60
2018-01-24T23:55:23.333Z,15.83
2018-01-24T23:57:50.944Z,16.27
